• Join FlightAware (Why Join?)
  • Login
  • US Flag 
03:46PM EDT


 

Airport Tracker/Info


-or-


 

Live Flight TrackerFlight Track Log ✈ AAR8733 ✈ 16-May-2013 ✈ RKSS / GMP - RKJY / RSU

Flight Track Log - Related Links

Times and Time Zones

All times are in EDT time to prevent confusion due to time zone crossing. See the AAR8733 flight status page for this flight to view local times or setup timezone preferences in your user account.

Time Position Orientation Groundspeed Altitude Reporting Facility
EDT Latitude Longitude Course Direction KTS MPH feet Rate Location/Type
09:06PM 37.2949 126.8731 166° South  Level Estimated
09:07PM 37.2071 126.9005 166° South  Level Estimated
09:08PM 37.1193 126.9279 166° South  Level Estimated
09:09PM 37.0315 126.9551 166° South  Level Estimated
09:10PM 36.9436 126.9823 166° South  Level Estimated
09:11PM 36.8558 127.0095 166° South  Level Estimated
09:12PM 36.7680 127.0365 166° South  Level Estimated
09:13PM 36.6801 127.0635 166° South  Level Estimated
09:14PM 36.5923 127.0905 166° South  Level Estimated
09:15PM 36.5044 127.1174 166° South  Level Estimated
09:16PM 36.4165 127.1442 166° South  Level Estimated
09:17PM 36.3287 127.1710 166° South  Level Estimated
09:18PM 36.2408 127.1977 166° South  Level Estimated
09:19PM 36.1529 127.2243 166° South  Level Estimated
09:20PM 36.0650 127.2509 166° South  Level Estimated
09:21PM 35.9771 127.2775 166° South  Level Estimated
09:22PM 35.8892 127.3039 166° South  Level Estimated
09:23PM 35.8013 127.3303 166° South  Level Estimated
09:24PM 35.7134 127.3567 166° South  Level Estimated
09:25PM 35.6255 127.3830 166° South  Level Estimated
09:26PM 35.5375 127.4092 166° South  Level Estimated
09:27PM 35.4496 127.4354 166° South  Level Estimated
09:28PM 35.3617 127.4615 166° South  Level Estimated
09:29PM 35.2737 127.4876 166° South  Level Estimated
09:30PM 35.1858 127.5136 166° South  Level Estimated
09:31PM 35.0978 127.5395 166° South  Level Estimated
09:32PM 35.0099 127.5654 166° South  Level Estimated
09:33PM 34.9219 127.5913 166° South  Level Estimated
09:34PM 34.8398 127.6153 166° South  Level Estimated
09:35PM 34.8398 127.6153 180° South  Level Estimated
09:36PM 34.8398 127.6153 180° South  Level Estimated
09:37PM 34.8398 127.6153 180° South  Level Estimated
09:38PM 34.8398 127.6153 180° South  Level Estimated
09:39PM 34.8398 127.6153 180° South  Level Estimated
09:40PM 34.8398 127.6153 180° South  Level Estimated
09:41PM 34.8398 127.6153 180° South  Level Estimated
09:42PM 34.8398 127.6153 180° South  Level Estimated
09:43PM 34.8398 127.6153 180° South  Level Estimated
09:44PM 34.8398 127.6153 180° South  Level Estimated
09:45PM 34.8398 127.6153 180° South  Level Estimated
09:46PM 34.8398 127.6153 180° South  Level Estimated